Lanes Prairie, Missouri
Current Conditions -  °F | °C
As of 4:53 PM on Thursday 18 Dec 2014 (Local Time) from KVIH Reporting Station
Haze Haze  
Wind Chill: -2°   Ceiling: 300
Heat Index:   Visibility: 5mi
Dew Point: -1°   Wind: 5mph
Humidity: 92%   Direction: 80°E
Pressure: 30.17"   Gusts: NA
Location:  38.2601°N, 91.7526°W
Report Text: KVIH 182253Z AUTO 08004KT 5SM BR OVC003 01/M01 A3017 RMK AO2 SLP227 T00061006
Loading
Personal Weather Stations






























Interactive Weather Map New forecast layout! Learn more

10-Day Weather Forecast

Advertisements
Track Severe Weather on mobile